Time;durP1;ratioP1;P1;durP2;ratioP2;P2;SDS_P1;SDS_P2;PMS_P1;PMS_P2;Temp;Humidity;BMP_temperature;BMP_pressure;BME280_temperature;BME280_humidity;BME280_pressure;Samples;Min_cycle;Max_cycle;Signal;HPM_P1;HPM_P2
2022/06/12 00:01:47;;;;;;;7.47;3.80;;;;;;;20.57;58.11;101105.59;4196281;28;20067;-70
2022/06/12 00:03:50;;;;;;;8.50;3.53;;;;;;;20.49;57.91;101106.63;4195010;28;20561;-69
2022/06/12 00:05:56;;;;;;;7.38;3.80;;;;;;;20.44;57.86;101098.75;4192581;28;20398;-70
2022/06/12 00:08:00;;;;;;;5.75;3.30;;;;;;;20.39;57.96;101109.41;4195004;28;20052;-70
2022/06/12 00:10:04;;;;;;;6.47;3.60;;;;;;;20.38;58.38;101104.13;4187516;28;20112;-70
2022/06/12 00:12:08;;;;;;;6.05;3.58;;;;;;;20.38;58.33;101112.06;4192331;28;20037;-70
2022/06/12 00:14:15;;;;;;;8.25;3.60;;;;;;;20.36;58.77;101109.44;4192003;28;20143;-70
2022/06/12 00:16:20;;;;;;;6.00;3.45;;;;;;;20.35;58.69;101114.75;4190533;28;20051;-69
2022/06/12 00:18:23;;;;;;;6.82;4.38;;;;;;;20.30;58.56;101114.84;4186414;28;20503;-69
2022/06/12 00:20:28;;;;;;;6.18;3.95;;;;;;;20.31;58.77;101113.06;4189789;28;20125;-69
2022/06/12 00:22:31;;;;;;;7.45;4.20;;;;;;;20.27;58.79;101112.25;4196105;28;20036;-69
2022/06/12 00:24:35;;;;;;;6.00;3.33;;;;;;;20.23;59.10;101114.03;4191711;28;20048;-69
2022/06/12 00:26:42;;;;;;;8.50;3.95;;;;;;;20.23;59.17;101107.91;4190898;28;20127;-69
2022/06/12 00:28:46;;;;;;;6.63;3.63;;;;;;;20.28;58.67;101114.00;4193797;28;20545;-70
2022/06/12 00:30:49;;;;;;;9.23;3.97;;;;;;;20.29;58.79;101117.50;4194289;28;20114;-70
2022/06/12 00:32:54;;;;;;;6.78;3.00;;;;;;;20.32;58.99;101118.31;4197017;28;20039;-70
2022/06/12 00:34:58;;;;;;;9.55;3.72;;;;;;;20.31;59.14;101115.69;4193364;28;20106;-69
2022/06/12 00:37:01;;;;;;;7.25;3.65;;;;;;;20.29;59.38;101117.50;4192651;28;20043;-69
2022/06/12 00:39:05;;;;;;;6.45;3.13;;;;;;;20.28;59.50;101113.09;4186779;28;20053;-69
2022/06/12 00:41:08;;;;;;;6.22;3.63;;;;;;;20.23;59.73;101119.31;4188519;28;20073;-69
2022/06/12 00:43:14;;;;;;;7.45;4.03;;;;;;;20.15;59.74;101117.69;4194127;28;20130;-69
2022/06/12 00:45:40;;;;;;;8.45;4.03;;;;;;;20.07;59.94;101116.97;4187071;28;20050;-69
2022/06/12 00:47:43;;;;;;;4.90;3.17;;;;;;;20.03;60.11;101124.03;4187896;28;20044;-69
2022/06/12 00:49:51;;;;;;;7.68;3.63;;;;;;;20.03;59.83;101119.66;4188936;28;20032;-69
2022/06/12 00:52:01;;;;;;;7.10;3.90;;;;;;;20.02;60.04;101127.59;4191926;28;20064;-69
2022/06/12 00:54:06;;;;;;;8.52;3.40;;;;;;;19.98;60.33;101128.53;4193605;28;20396;-69
2022/06/12 00:56:15;;;;;;;8.27;3.70;;;;;;;19.96;60.16;101123.25;4191618;28;20495;-69
2022/06/12 00:58:22;;;;;;;9.25;4.00;;;;;;;19.96;60.26;101127.66;4181581;28;20492;-69
2022/06/12 01:00:25;;;;;;;7.53;3.50;;;;;;;19.93;60.13;101128.59;4195595;28;20039;-69
2022/06/12 01:02:32;;;;;;;6.80;3.80;;;;;;;19.96;60.21;101127.66;4194458;28;20051;-69
2022/06/12 01:07:02;;;;;;;6.28;3.45;;;;;;;19.93;60.15;101127.69;4194804;28;20045;-69
2022/06/12 01:09:10;;;;;;;7.13;4.18;;;;;;;19.92;60.35;101126.84;4185441;28;20441;-69
2022/06/12 01:11:15;;;;;;;6.05;3.45;;;;;;;19.91;60.28;101129.50;4191716;28;20469;-69
2022/06/12 01:13:22;;;;;;;6.57;3.88;;;;;;;19.89;60.59;101129.53;4193289;28;20177;-69
2022/06/12 01:15:29;;;;;;;7.03;3.60;;;;;;;19.90;60.32;101122.47;4189159;28;20049;-69
2022/06/12 01:17:32;;;;;;;5.22;3.30;;;;;;;19.89;60.30;101118.97;4184689;28;20435;-69
2022/06/12 01:19:44;;;;;;;9.23;3.83;;;;;;;19.92;59.95;101126.84;4195458;28;20037;-69
2022/06/12 01:22:16;;;;;;;7.00;3.33;;;;;;;19.90;60.28;101122.47;4187351;28;20041;-69
2022/06/12 01:24:53;;;;;;;6.75;3.97;;;;;;;19.84;60.95;101121.66;4180623;28;20136;-69
2022/06/12 01:27:15;;;;;;;7.07;3.58;;;;;;;19.80;61.21;101121.72;4188768;28;20044;-69
2022/06/12 01:29:26;;;;;;;5.43;3.75;;;;;;;19.77;60.95;101119.97;4210105;28;20409;-69
2022/06/12 01:31:45;;;;;;;5.63;2.95;;;;;;;19.77;60.68;101119.09;4191594;28;20123;-69
2022/06/12 01:33:57;;;;;;;5.85;3.25;;;;;;;19.78;60.88;101116.47;4192709;28;20043;-69
2022/06/12 01:36:09;;;;;;;6.25;3.38;;;;;;;19.79;60.85;101118.22;4191769;28;20041;-69
2022/06/12 01:38:18;;;;;;;6.45;3.30;;;;;;;19.78;61.12;101115.56;4193441;28;20047;-69
2022/06/12 01:40:32;;;;;;;4.78;2.83;;;;;;;19.78;60.68;101119.09;4191073;28;20043;-69
2022/06/12 01:42:40;;;;;;;6.80;3.20;;;;;;;19.78;60.81;101111.19;4185291;28;20041;-69
2022/06/12 01:44:50;;;;;;;5.70;3.05;;;;;;;19.77;61.33;101106.78;4188321;28;20049;-69
2022/06/12 01:47:00;;;;;;;9.00;3.10;;;;;;;19.72;62.34;101111.22;4189694;28;20041;-69
2022/06/12 01:49:13;;;;;;;6.90;3.38;;;;;;;19.70;62.94;101107.75;4185007;28;20135;-69
2022/06/12 01:51:21;;;;;;;5.47;3.00;;;;;;;19.67;63.12;101107.81;4191901;28;20029;-70
2022/06/12 01:53:30;;;;;;;5.32;3.35;;;;;;;19.66;63.32;101111.31;4192152;28;20044;-69
2022/06/12 01:55:44;;;;;;;7.47;3.72;;;;;;;19.65;63.08;101106.94;4194850;28;20056;-69
2022/06/12 01:57:55;;;;;;;10.32;4.03;;;;;;;19.59;63.08;101115.78;4191850;28;20578;-69
2022/06/12 02:00:06;;;;;;;9.23;3.40;;;;;;;19.59;63.27;101114.94;4192388;28;20051;-69
2022/06/12 02:02:19;;;;;;;6.15;3.08;;;;;;;19.58;63.08;101127.25;4214587;28;20044;-69
2022/06/12 02:04:30;;;;;;;8.50;3.45;;;;;;;19.59;62.89;101117.56;4182327;28;20124;-69
2022/06/12 02:06:39;;;;;;;9.10;3.55;;;;;;;19.61;63.35;101115.78;4195225;28;20048;-69
2022/06/12 02:08:46;;;;;;;7.82;3.00;;;;;;;19.60;63.01;101119.31;4194748;28;20041;-69
2022/06/12 02:10:54;;;;;;;7.35;3.72;;;;;;;19.58;63.70;101124.63;4205865;28;20101;-69
2022/06/12 02:13:14;;;;;;;7.25;3.80;;;;;;;19.52;63.74;101122.94;4196600;28;20094;-70
2022/06/12 02:15:26;;;;;;;8.32;3.60;;;;;;;19.43;64.07;101123.00;4194850;28;20491;-70
2022/06/12 02:17:33;;;;;;;6.57;3.47;;;;;;;19.34;64.19;101123.13;4189880;28;20036;-70
2022/06/12 02:19:41;;;;;;;6.53;3.25;;;;;;;19.29;64.53;101115.28;4190592;28;20123;-70
2022/06/12 02:21:52;;;;;;;5.97;3.67;;;;;;;19.32;64.51;101124.94;4196404;28;20124;-70
2022/06/12 02:23:58;;;;;;;7.53;3.40;;;;;;;19.34;64.54;101125.78;4197422;28;20048;-70
2022/06/12 02:26:03;;;;;;;5.75;3.63;;;;;;;19.35;64.17;101116.97;4194691;28;20127;-70
2022/06/12 02:28:12;;;;;;;6.22;3.60;;;;;;;19.38;63.88;101116.94;4194496;28;20043;-70
2022/06/12 02:30:20;;;;;;;5.53;3.55;;;;;;;19.39;63.97;101113.44;4181394;28;20131;-70
2022/06/12 02:32:31;;;;;;;4.80;3.08;;;;;;;19.35;64.50;101114.34;4192203;28;20119;-70
2022/06/12 02:34:40;;;;;;;8.20;3.30;;;;;;;19.32;64.89;101120.50;4196045;28;20435;-69
2022/06/12 02:36:47;;;;;;;5.15;3.38;;;;;;;19.28;65.16;101112.66;4196760;28;20044;-70
2022/06/12 02:38:56;;;;;;;5.55;3.33;;;;;;;19.26;65.22;101117.06;4186002;28;20561;-70
2022/06/12 02:41:05;;;;;;;6.70;3.90;;;;;;;19.23;65.06;101115.34;4194303;28;20041;-70
2022/06/12 02:43:12;;;;;;;6.65;3.78;;;;;;;19.23;64.60;101115.34;4197808;28;20495;-70
2022/06/12 02:45:21;;;;;;;5.30;3.20;;;;;;;19.19;65.09;101125.03;4184859;28;20518;-70
2022/06/12 02:47:29;;;;;;;7.93;3.80;;;;;;;19.17;64.89;101113.66;4191801;28;20164;-70
2022/06/12 02:49:33;;;;;;;5.25;3.42;;;;;;;19.14;65.02;101118.97;4191501;28;20044;-70
2022/06/12 02:51:46;;;;;;;5.72;3.60;;;;;;;19.09;65.55;101115.50;4191732;28;20039;-71
2022/06/12 02:54:00;;;;;;;5.55;3.10;;;;;;;18.98;66.32;101109.44;4195652;28;20127;-70
2022/06/12 02:56:11;;;;;;;7.03;3.60;;;;;;;19.02;66.17;101111.19;4195328;28;20086;-70
2022/06/12 02:58:20;;;;;;;7.32;3.60;;;;;;;19.05;65.81;101111.13;4184247;28;20048;-70
2022/06/12 03:00:30;;;;;;;6.47;3.22;;;;;;;19.04;66.30;101112.06;4196281;28;20547;-70
2022/06/12 03:02:37;;;;;;;6.57;3.55;;;;;;;19.03;66.00;101115.56;4192685;28;20040;-70
2022/06/12 03:04:46;;;;;;;11.63;4.30;;;;;;;19.00;66.26;101124.38;4194675;28;21440;-70
2022/06/12 03:06:49;;;;;;;5.65;3.28;;;;;;;19.00;66.02;101118.25;4193073;28;20448;-70
2022/06/12 03:08:52;;;;;;;6.35;3.35;;;;;;;19.03;65.47;101118.19;4170394;28;20045;-70
2022/06/12 03:10:59;;;;;;;5.15;3.40;;;;;;;19.05;65.61;101126.09;4175843;28;20037;-71
2022/06/12 03:13:03;;;;;;;7.75;3.90;;;;;;;19.02;65.98;101117.31;4191728;28;20063;-70
2022/06/12 03:15:27;;;;;;;7.18;4.55;;;;;;;19.02;65.98;101121.72;4197873;28;20052;-70
2022/06/12 03:17:30;;;;;;;6.82;4.10;;;;;;;19.00;66.43;101118.25;4194279;28;20051;-70
2022/06/12 03:19:47;;;;;;;9.82;4.68;;;;;;;18.99;65.82;101122.63;4189447;28;20574;-70
2022/06/12 03:21:59;;;;;;;10.38;4.53;;;;;;;18.98;66.19;101120.00;4189263;28;20592;-70
2022/06/12 03:24:25;;;;;;;8.23;4.15;;;;;;;18.97;66.21;101126.19;4195094;28;20131;-70
2022/06/12 03:26:37;;;;;;;8.65;4.30;;;;;;;18.95;66.62;101128.81;4182946;28;20132;-70
2022/06/12 03:28:49;;;;;;;10.85;4.72;;;;;;;18.97;66.34;101127.03;4194889;28;20040;-70
2022/06/12 03:30:59;;;;;;;8.40;4.72;;;;;;;18.98;66.19;101120.88;4190134;28;20036;-70
2022/06/12 03:33:10;;;;;;;5.22;3.72;;;;;;;19.01;65.88;101127.88;4196443;28;20587;-70
2022/06/12 03:35:22;;;;;;;7.65;4.60;;;;;;;19.04;66.01;101130.50;4177141;28;20044;-70
2022/06/12 03:37:39;;;;;;;7.20;4.00;;;;;;;19.01;66.65;101130.50;4196555;28;20040;-70
2022/06/12 03:39:48;;;;;;;7.70;4.05;;;;;;;19.00;66.79;101127.00;4194592;28;20043;-69
2022/06/12 03:41:56;;;;;;;8.63;4.07;;;;;;;19.01;66.90;101130.50;4194319;28;20056;-70
2022/06/12 03:44:06;;;;;;;8.30;4.13;;;;;;;19.02;66.80;101137.53;4185731;28;20067;-71
2022/06/12 03:46:21;;;;;;;5.85;3.88;;;;;;;19.04;66.48;101135.78;4188187;28;20033;-70
2022/06/12 03:48:30;;;;;;;8.98;4.40;;;;;;;19.03;66.46;101136.66;4186089;28;20407;-70
2022/06/12 03:50:40;;;;;;;9.05;4.50;;;;;;;19.01;66.59;101133.13;4196682;28;20056;-70
2022/06/12 03:52:51;;;;;;;6.25;4.25;;;;;;;19.04;65.97;101142.78;4188253;28;20032;-70
2022/06/12 03:55:00;;;;;;;6.25;4.38;;;;;;;19.07;65.45;101146.28;4194243;28;20139;-70
2022/06/12 03:59:35;;;;;;;7.93;4.68;;;;;;;19.07;65.79;101148.91;4194834;28;20490;-70
2022/06/12 04:01:39;;;;;;;8.07;4.65;;;;;;;19.05;65.80;101145.41;4188494;28;20060;-70
2022/06/12 04:03:45;;;;;;;7.38;4.32;;;;;;;19.08;65.45;101147.13;4194492;28;20124;-70
2022/06/12 04:05:53;;;;;;;7.72;4.93;;;;;;;19.06;66.09;101148.94;4187345;28;20048;-70
2022/06/12 04:08:05;;;;;;;7.47;4.75;;;;;;;19.01;65.83;101144.56;4194536;28;20075;-70
2022/06/12 04:10:10;;;;;;;6.80;4.18;;;;;;;19.02;65.63;101148.06;4187250;28;20040;-70
2022/06/12 04:12:18;;;;;;;8.63;4.53;;;;;;;19.07;65.66;101146.28;4191470;28;20546;-70
2022/06/12 04:14:25;;;;;;;7.60;4.35;;;;;;;19.08;65.81;101148.00;4185103;28;20470;-70
2022/06/12 04:16:34;;;;;;;7.60;4.47;;;;;;;19.11;65.58;101142.69;4191823;28;20682;-70
2022/06/12 04:18:37;;;;;;;11.45;4.90;;;;;;;19.13;65.73;101142.72;4192189;28;20064;-70
2022/06/12 04:20:55;;;;;;;6.78;3.83;;;;;;;19.17;65.35;101147.94;4187087;28;20042;-70
2022/06/12 04:23:06;;;;;;;6.50;3.90;;;;;;;19.21;65.89;101147.88;4187859;28;20036;-70
2022/06/12 04:25:26;;;;;;;8.32;4.40;;;;;;;19.23;65.49;101151.38;4186422;28;20041;-70
2022/06/12 04:27:34;;;;;;;6.72;3.50;;;;;;;19.22;65.67;101144.38;4178548;28;20128;-71
2022/06/12 04:29:48;;;;;;;9.20;4.50;;;;;;;19.26;65.42;101151.34;4188412;28;20035;-71
2022/06/12 04:31:55;;;;;;;9.32;4.00;;;;;;;19.24;65.52;101151.34;4191561;28;20064;-70
2022/06/12 04:34:11;;;;;;;6.65;4.15;;;;;;;19.32;65.54;101135.47;4193864;28;20450;-71
2022/06/12 04:36:15;;;;;;;7.05;3.75;;;;;;;19.31;65.84;101145.13;4188860;28;20060;-71
2022/06/12 04:38:19;;;;;;;6.18;3.90;;;;;;;19.30;65.65;101145.16;4193711;28;20033;-71
2022/06/12 04:40:27;;;;;;;5.75;3.67;;;;;;;19.34;65.55;101145.09;4188449;28;20065;-71
2022/06/12 04:42:33;;;;;;;4.32;2.88;;;;;;;19.42;65.46;101138.84;4193034;28;20067;-71
2022/06/12 04:44:36;;;;;;;6.97;3.55;;;;;;;19.42;65.50;101142.38;4188577;28;20068;-69
2022/06/12 04:46:42;;;;;;;6.83;3.70;;;;;;;19.45;65.38;101138.81;4196051;28;20405;-70
2022/06/12 04:48:48;;;;;;;6.30;3.22;;;;;;;19.50;65.50;101153.69;4193383;28;20051;-69
2022/06/12 04:50:51;;;;;;;7.18;4.05;;;;;;;19.53;65.68;101156.28;4189632;28;20040;-70
2022/06/12 04:52:55;;;;;;;5.55;3.53;;;;;;;19.61;66.39;101152.69;4188134;28;20055;-69
2022/06/12 04:54:58;;;;;;;7.47;4.00;;;;;;;19.64;66.30;101144.75;4193545;28;20524;-70
2022/06/12 04:57:01;;;;;;;6.70;3.40;;;;;;;19.71;66.47;101154.31;4189376;28;20049;-70
2022/06/12 04:59:06;;;;;;;7.10;3.70;;;;;;;19.77;66.72;101164.84;4190665;28;20131;-70
2022/06/12 05:01:10;;;;;;;7.65;3.85;;;;;;;19.79;67.18;101156.94;4188675;28;20586;-70
2022/06/12 05:03:13;;;;;;;6.18;3.90;;;;;;;19.84;67.27;101161.25;4177000;28;20037;-70
2022/06/12 05:05:16;;;;;;;5.55;3.40;;;;;;;19.91;66.74;101169.09;4169567;28;20055;-70
2022/06/12 05:07:19;;;;;;;6.65;3.45;;;;;;;19.94;66.35;101166.41;4193390;28;20042;-70
2022/06/12 05:09:27;;;;;;;5.53;3.22;;;;;;;20.03;65.78;101166.25;4190770;28;20033;-70
2022/06/12 05:11:30;;;;;;;7.25;3.25;;;;;;;20.08;65.71;101159.16;4191493;28;20323;-70
2022/06/12 05:13:34;;;;;;;7.47;4.00;;;;;;;20.16;65.66;101159.06;4185647;28;20076;-69
2022/06/12 05:15:37;;;;;;;7.28;3.28;;;;;;;20.22;65.39;101157.22;4193699;28;20046;-70
2022/06/12 05:17:41;;;;;;;5.80;3.30;;;;;;;20.31;65.39;101145.63;4194671;28;20060;-70
2022/06/12 05:19:45;;;;;;;5.13;3.20;;;;;;;20.30;65.72;101148.31;4189807;28;20406;-70
2022/06/12 05:21:48;;;;;;;5.75;3.47;;;;;;;20.31;66.05;101150.03;4187327;28;20124;-70
2022/06/12 05:23:52;;;;;;;6.60;3.45;;;;;;;20.32;66.38;101151.78;4186884;28;20490;-70
2022/06/12 05:25:56;;;;;;;6.45;3.97;;;;;;;20.36;65.75;101149.06;4194128;28;20040;-69
2022/06/12 05:28:04;;;;;;;9.90;4.75;;;;;;;20.55;61.34;101154.94;4194390;28;20070;-69
2022/06/12 05:30:08;;;;;;;6.00;4.00;;;;;;;20.61;59.89;101153.97;4193195;28;20051;-69
2022/06/12 05:32:13;;;;;;;9.18;4.55;;;;;;;20.77;59.13;101153.75;4193982;28;20037;-70
2022/06/12 05:34:17;;;;;;;8.30;4.70;;;;;;;20.77;59.26;101153.75;4195713;28;20047;-69
2022/06/12 05:36:20;;;;;;;9.20;4.00;;;;;;;20.91;58.35;101147.31;4191502;28;20505;-69
2022/06/12 05:38:24;;;;;;;7.60;4.00;;;;;;;21.02;57.42;101148.91;4198320;28;20513;-69
2022/06/12 05:40:32;;;;;;;7.03;3.28;;;;;;;21.00;57.37;101151.56;4187249;28;20120;-69
2022/06/12 05:42:36;;;;;;;10.75;3.60;;;;;;;20.99;57.57;101155.09;4195839;28;20127;-69
2022/06/12 05:44:40;;;;;;;;;;;;;;;20.98;58.07;101153.34;4197104;28;20131;-70
2022/06/12 05:46:43;;;;;;;7.50;3.05;;;;;;;20.98;58.07;101149.84;4193885;28;19920;-70
2022/06/12 05:48:46;;;;;;;6.95;3.70;;;;;;;21.13;58.03;101146.94;4195956;28;20043;-69
2022/06/12 05:50:52;;;;;;;7.82;4.60;;;;;;;21.17;57.47;101148.59;4189440;28;20145;-69
2022/06/12 05:52:55;;;;;;;9.30;4.07;;;;;;;21.24;57.21;101150.22;4198314;28;20036;-69
2022/06/12 05:54:59;;;;;;;12.00;4.30;;;;;;;21.35;57.31;101143.84;4191594;28;20045;-69
2022/06/12 05:57:01;;;;;;;8.10;3.70;;;;;;;;;;4196690;28;20041;-70
2022/06/12 05:59:06;;;;;;;8.18;3.50;;;;;;;21.38;56.26;101151.75;4192677;28;20036;-70
2022/06/12 06:01:11;;;;;;;5.63;3.50;;;;;;;;;;4191711;28;20127;-70
2022/06/12 06:03:14;;;;;;;6.90;3.42;;;;;;;21.41;55.95;101154.34;4191135;28;20063;-69
2022/06/12 06:05:18;;;;;;;8.60;3.80;;;;;;;21.45;55.89;101150.72;4190614;28;20106;-68
2022/06/12 06:07:21;;;;;;;8.70;3.90;;;;;;;21.55;55.38;101152.31;4189544;28;20438;-69
2022/06/12 06:09:25;;;;;;;6.38;2.97;;;;;;;21.51;55.82;101155.94;4192517;28;20044;-69
2022/06/12 06:11:28;;;;;;;6.72;3.45;;;;;;;21.58;55.42;101152.25;4186386;28;20080;-69
2022/06/12 06:13:31;;;;;;;10.05;3.88;;;;;;;21.65;55.55;101150.34;4195628;28;20135;-69
2022/06/12 06:15:36;;;;;;;6.72;3.20;;;;;;;21.63;54.92;101144.22;4191436;28;20515;-69
2022/06/12 06:17:40;;;;;;;6.85;3.33;;;;;;;21.64;55.54;101145.06;4189933;28;20054;-69
2022/06/12 06:19:43;;;;;;;12.77;4.43;;;;;;;21.81;54.65;101142.94;4187771;28;20115;-69
2022/06/12 06:21:46;;;;;;;7.85;3.80;;;;;;;21.87;54.74;101142.81;4185716;28;20403;-68
2022/06/12 06:23:49;;;;;;;7.07;3.58;;;;;;;21.85;54.99;101152.56;4195371;28;20098;-68
2022/06/12 06:25:52;;;;;;;7.22;4.13;;;;;;;22.03;54.66;101143.34;4194489;28;20733;-68
2022/06/12 06:27:56;;;;;;;9.50;3.70;;;;;;;22.07;54.38;101149.44;4192066;28;20047;-68
2022/06/12 06:29:59;;;;;;;8.13;4.18;;;;;;;22.09;54.21;101150.28;4186635;28;20172;-69
2022/06/12 06:32:05;;;;;;;7.38;3.63;;;;;;;22.13;54.19;101157.25;4195218;28;20052;-69
2022/06/12 06:34:07;;;;;;;8.23;4.20;;;;;;;22.16;54.10;101151.03;4194190;28;20056;-68
2022/06/12 06:36:12;;;;;;;10.45;4.55;;;;;;;22.07;54.47;101154.75;4198324;28;20571;-68
2022/06/12 06:38:15;;;;;;;;;;;;;;;21.88;55.18;101152.50;4189525;28;20151;-69
2022/06/12 06:40:19;;;;;;;10.05;3.63;;;;;;;21.99;55.64;101154.03;4188201;28;19935;-69
2022/06/12 06:42:23;;;;;;;6.88;3.40;;;;;;;22.11;55.23;101148.47;4189752;28;20072;-69
2022/06/12 06:46:46;;;;;;;9.35;4.57;;;;;;;22.46;54.02;101149.47;4196904;28;20130;-68
2022/06/12 06:48:55;;;;;;;5.65;3.40;;;;;;;22.31;55.05;101146.25;4190266;28;20075;-69
2022/06/12 06:50:58;;;;;;;8.30;4.50;;;;;;;22.45;53.69;101155.66;4182887;28;20045;-69
2022/06/12 06:53:02;;;;;;;9.65;4.47;;;;;;;22.47;53.74;101156.47;4187847;28;20040;-69
2022/06/12 06:55:06;;;;;;;9.00;4.22;;;;;;;22.37;54.15;101154.97;4189317;28;20044;-69
2022/06/12 06:57:09;;;;;;;8.23;3.25;;;;;;;22.35;54.44;101152.34;4192097;28;20452;-69
2022/06/12 06:59:12;;;;;;;8.13;4.03;;;;;;;22.49;54.58;101154.69;4195192;28;20404;-69
2022/06/12 07:01:16;;;;;;;9.02;4.72;;;;;;;22.58;53.54;101151.81;4182089;28;20076;-68
2022/06/12 07:03:19;;;;;;;9.90;3.70;;;;;;;22.40;54.28;101154.88;4190927;28;20124;-68
2022/06/12 07:05:24;;;;;;;7.00;3.25;;;;;;;22.32;54.46;101157.72;4190104;28;20045;-68
2022/06/12 07:07:27;;;;;;;6.32;3.55;;;;;;;22.36;54.82;101155.91;4186115;28;20033;-69
2022/06/12 07:09:30;;;;;;;6.43;3.78;;;;;;;22.50;54.33;101151.09;4189128;28;20036;-71
2022/06/12 07:11:33;;;;;;;6.47;3.58;;;;;;;22.54;54.22;101147.47;4191646;28;20043;-64
2022/06/12 07:13:36;;;;;;;11.02;3.95;;;;;;;22.61;54.14;101143.78;4195745;28;20090;-64
2022/06/12 07:15:39;;;;;;;9.88;4.28;;;;;;;22.81;53.32;101153.00;4173315;28;20088;-65
2022/06/12 07:17:43;;;;;;;8.07;3.83;;;;;;;22.92;52.93;101160.69;4190295;28;20138;-65
2022/06/12 07:19:46;;;;;;;8.80;3.88;;;;;;;22.84;53.15;101158.22;4191816;28;20518;-65
2022/06/12 07:21:51;;;;;;;11.88;3.92;;;;;;;22.71;53.42;101157.66;4193460;28;20119;-63
2022/06/12 07:23:58;;;;;;;8.75;3.00;;;;;;;22.62;53.84;101153.47;4194066;28;20111;-71
2022/06/12 07:26:05;;;;;;;10.48;3.35;;;;;;;22.73;53.82;101149.69;4192394;28;20059;-71
2022/06/12 07:28:08;;;;;;;6.40;3.60;;;;;;;22.71;53.64;101151.50;4192941;28;20052;-72
2022/06/12 07:30:15;;;;;;;6.07;3.50;;;;;;;22.71;53.34;101155.03;4196836;28;20503;-72
2022/06/12 07:32:18;;;;;;;8.23;2.88;;;;;;;22.65;53.63;101147.22;4182620;28;20132;-72
2022/06/12 07:34:21;;;;;;;6.80;4.28;;;;;;;22.83;53.66;101154.69;4164910;28;20053;-71
2022/06/12 07:36:24;;;;;;;6.10;3.83;;;;;;;22.88;53.22;101145.75;4179881;28;20071;-72
2022/06/12 07:38:29;;;;;;;9.77;4.43;;;;;;;23.01;52.88;101148.06;4190381;28;20411;-71
2022/06/12 07:40:37;;;;;;;5.00;3.10;;;;;;;22.95;53.26;101140.25;4207512;28;20036;-72
2022/06/12 07:42:40;;;;;;;7.90;3.42;;;;;;;23.00;53.50;101143.66;4181389;28;20051;-72
2022/06/12 07:44:43;;;;;;;4.57;2.50;;;;;;;23.10;53.32;101130.13;4185180;28;20063;-72
2022/06/12 07:46:46;;;;;;;9.27;3.85;;;;;;;23.41;51.38;101139.91;4192580;28;20047;-71
2022/06/12 07:48:50;;;;;;;13.20;5.00;;;;;;;23.48;50.89;101141.50;4188673;28;20399;-71
2022/06/12 07:50:54;;;;;;;7.63;2.92;;;;;;;23.35;51.98;101136.53;4197715;28;20115;-72
2022/06/12 07:52:58;;;;;;;7.90;3.90;;;;;;;23.47;52.17;101135.31;4187683;28;20047;-72
2022/06/12 07:55:02;;;;;;;8.20;3.38;;;;;;;23.45;52.10;101142.47;4196839;28;20127;-72
2022/06/12 07:57:06;;;;;;;;;;;;;;;23.36;52.10;101137.41;4190028;28;20503;-72
2022/06/12 07:59:09;;;;;;;7.97;4.05;;;;;;;23.55;51.58;101136.88;4192826;28;19960;-71
2022/06/12 08:01:15;;;;;;;10.45;4.47;;;;;;;23.78;50.26;101136.22;4187483;28;20503;-71
2022/06/12 08:03:18;;;;;;;6.88;3.65;;;;;;;23.65;50.67;101131.25;4189687;28;20044;-72
2022/06/12 08:05:22;;;;;;;6.25;3.13;;;;;;;23.62;51.16;101138.44;4192142;28;20281;-72
2022/06/12 08:07:25;;;;;;;7.93;3.03;;;;;;;23.70;51.45;101126.69;4180493;28;20061;-72
2022/06/12 08:09:28;;;;;;;8.65;3.95;;;;;;;23.90;51.51;101133.19;4182442;28;20407;-72
2022/06/12 08:11:34;;;;;;;7.50;4.18;;;;;;;24.12;50.49;101124.56;4187253;28;20474;-71
2022/06/12 08:13:37;;;;;;;5.82;3.70;;;;;;;24.18;50.08;101121.72;4192321;28;20578;-72
2022/06/12 08:15:44;;;;;;;7.40;3.30;;;;;;;24.28;48.48;101131.13;4183215;28;20109;-71
2022/06/12 08:17:49;;;;;;;5.45;2.90;;;;;;;24.23;48.81;101120.66;4193676;28;20719;-72
2022/06/12 08:22:13;;;;;;;6.28;3.40;;;;;;;24.37;48.78;101122.88;4195371;28;20064;-71
2022/06/12 08:24:16;;;;;;;8.25;3.88;;;;;;;24.42;49.31;101125.38;4196207;28;20043;-71
2022/06/12 08:26:21;;;;;;;7.10;3.88;;;;;;;24.59;47.50;101122.19;4196382;28;20036;-71
2022/06/12 08:28:28;;;;;;;6.68;3.47;;;;;;;24.59;47.79;101127.50;4197408;28;20123;-72
2022/06/12 08:30:31;;;;;;;9.80;3.92;;;;;;;24.57;48.48;101131.97;4182665;28;20040;-72
2022/06/12 08:32:36;;;;;;;7.87;3.70;;;;;;;24.61;48.20;101130.97;4194467;28;20048;-70
2022/06/12 08:34:42;;;;;;;6.53;3.50;;;;;;;24.56;48.16;101122.25;4192860;28;20390;-71
2022/06/12 08:36:46;;;;;;;13.18;4.13;;;;;;;24.60;48.09;101123.91;4192906;28;20063;-69
2022/06/12 08:38:53;;;;;;;9.48;4.18;;;;;;;24.71;47.70;101118.25;4183174;28;20119;-71
2022/06/12 08:41:00;;;;;;;8.82;4.00;;;;;;;24.81;47.25;101116.13;4193937;28;20044;-74
2022/06/12 08:43:12;;;;;;;6.35;4.10;;;;;;;24.74;46.96;101113.69;4195600;28;20040;-73
2022/06/12 08:45:19;;;;;;;7.03;4.05;;;;;;;24.86;46.90;101109.72;4196387;28;20036;-71
2022/06/12 08:47:34;;;;;;;8.18;4.18;;;;;;;24.88;47.03;101110.56;4190628;28;20211;-73
2022/06/12 08:49:45;;;;;;;8.57;3.63;;;;;;;25.00;46.72;101111.91;4192514;28;20561;-73
2022/06/12 08:51:54;;;;;;;8.55;3.85;;;;;;;25.01;46.89;101113.63;4190558;28;20123;-72
2022/06/12 08:54:02;;;;;;;10.55;3.90;;;;;;;25.21;46.21;101114.72;4185457;28;20036;-73
2022/06/12 08:56:11;;;;;;;6.72;3.53;;;;;;;25.24;46.17;101110.13;4195414;28;20470;-72
2022/06/12 08:58:18;;;;;;;7.60;3.05;;;;;;;25.23;46.04;101104.88;4187532;28;20040;-77
2022/06/12 09:00:25;;;;;;;9.18;3.40;;;;;;;25.26;46.99;101104.75;4188540;28;20029;-77
2022/06/12 09:02:38;;;;;;;3.80;2.17;;;;;;;25.38;47.66;101104.34;4194508;28;20036;-73
2022/06/12 09:04:41;;;;;;;4.75;2.90;;;;;;;25.52;47.62;101102.94;4195798;28;20036;-72
2022/06/12 09:06:48;;;;;;;6.35;3.55;;;;;;;25.77;45.79;101101.09;4197161;28;20475;-70
2022/06/12 09:08:59;;;;;;;8.00;4.32;;;;;;;25.89;45.91;101104.16;4182894;28;20052;-72
2022/06/12 09:11:10;;;;;;;6.35;3.67;;;;;;;25.94;45.03;101097.72;4195732;28;20139;-71
2022/06/12 09:13:27;;;;;;;8.00;2.53;;;;;;;25.81;45.63;101103.63;4184358;28;20483;-63
2022/06/12 09:15:41;;;;;;;9.52;3.55;;;;;;;25.95;45.10;101099.47;4180305;28;20045;-67
2022/06/12 09:17:54;;;;;;;5.65;3.03;;;;;;;25.81;45.56;101092.97;4187678;28;20045;-65
2022/06/12 09:20:11;;;;;;;7.57;3.85;;;;;;;25.85;46.08;101091.94;4193286;28;20044;-65
2022/06/12 09:22:21;;;;;;;7.30;3.60;;;;;;;25.98;45.90;101090.50;4189323;28;20072;-64
2022/06/12 09:24:35;;;;;;;5.68;3.33;;;;;;;25.97;46.72;101088.75;4186784;28;20043;-65
2022/06/12 09:26:48;;;;;;;8.95;3.67;;;;;;;25.92;46.54;101085.44;4193395;28;20037;-65
2022/06/12 09:29:02;;;;;;;7.80;4.20;;;;;;;26.14;45.40;101077.47;4191377;28;20555;-66
2022/06/12 09:31:28;;;;;;;8.18;3.75;;;;;;;26.11;45.58;101090.91;4168890;28;20049;-65
2022/06/12 09:33:39;;;;;;;8.35;3.83;;;;;;;26.20;45.18;101076.34;4189025;28;20048;-65
2022/06/12 09:35:52;;;;;;;7.03;3.42;;;;;;;26.32;45.29;101077.63;4194507;28;20056;-65
2022/06/12 09:38:21;;;;;;;11.95;5.45;;;;;;;26.42;43.98;101084.31;4194165;28;20053;-64
2022/06/12 09:40:32;;;;;;;10.32;4.68;;;;;;;26.34;44.24;101079.28;4186522;28;20055;-65
2022/06/12 09:42:52;;;;;;;10.60;4.80;;;;;;;26.27;44.36;101075.16;4187955;28;20040;-65
2022/06/12 09:45:02;;;;;;;8.10;2.83;;;;;;;26.34;43.58;101073.94;4191339;28;20119;-65
2022/06/12 09:47:10;;;;;;;4.03;2.10;;;;;;;26.22;44.17;101078.00;4193835;28;20048;-65
2022/06/12 09:49:42;;;;;;;5.25;2.05;;;;;;;26.33;44.48;101074.91;4186175;28;20048;-64
2022/06/12 09:52:03;;;;;;;5.90;2.10;;;;;;;26.46;43.55;101068.09;4180024;28;20044;-65
2022/06/12 09:54:27;;;;;;;4.05;2.00;;;;;;;26.53;43.73;101068.69;4191680;28;20128;-65
2022/06/12 09:56:38;;;;;;;5.50;2.58;;;;;;;26.82;42.22;101067.47;4190652;28;20048;-64
2022/06/12 09:58:44;;;;;;;7.28;2.78;;;;;;;26.96;41.36;101069.53;4196675;28;20522;-64
2022/06/12 10:00:52;;;;;;;3.00;1.55;;;;;;;26.71;42.40;101066.19;4190168;28;20040;-63
2022/06/12 10:03:05;;;;;;;4.72;1.58;;;;;;;26.65;42.00;101067.31;4189967;28;20499;-64
2022/06/12 10:05:14;;;;;;;4.63;1.98;;;;;;;26.73;42.08;101061.69;4190975;28;20399;-63